Time;durP1;ratioP1;P1;durP2;ratioP2;P2;SDS_P1;SDS_P2;PMS_P1;PMS_P2;Temp;Humidity;BMP_temperature;BMP_pressure;BME280_temperature;BME280_humidity;BME280_pressure;Samples;Min_cycle;Max_cycle;Signal;HPM_P1;HPM_P2
2021/10/01 00:00:10;;;;;;;5.37;3.50;;;;;;;10.34;77.00;101746.00;2066195;28;20081;-69
2021/10/01 00:01:10;;;;;;;4.60;3.40;;;;;;;10.32;77.60;101740.81;2065523;28;20056;-67
2021/10/01 00:02:10;;;;;;;6.10;3.33;;;;;;;10.29;78.00;101751.34;2057623;28;20023;-68
2021/10/01 00:03:11;;;;;;;5.33;3.07;;;;;;;10.24;77.95;101738.44;2065765;28;20026;-66
2021/10/01 00:04:12;;;;;;;6.53;3.33;;;;;;;10.21;78.08;101740.25;2066288;28;20026;-67
2021/10/01 00:05:12;;;;;;;9.77;4.18;;;;;;;10.17;77.72;101740.34;2065592;28;20551;-65
2021/10/01 00:06:12;;;;;;;4.80;3.40;;;;;;;10.19;77.76;101745.50;2065496;28;20018;-67
2021/10/01 00:07:12;;;;;;;4.53;3.00;;;;;;;10.22;77.87;101739.34;2066207;28;20456;-67
2021/10/01 00:08:13;;;;;;;4.63;3.30;;;;;;;10.22;77.87;101739.34;2066119;28;20109;-65
2021/10/01 00:09:13;;;;;;;6.93;3.50;;;;;;;10.23;77.59;101741.94;2066121;28;20026;-66
2021/10/01 00:10:13;;;;;;;7.10;4.93;;;;;;;10.24;77.67;101737.56;2066139;28;20077;-66
2021/10/01 00:11:13;;;;;;;3.97;3.67;;;;;;;10.22;77.65;101740.22;2066013;28;20116;-67
2021/10/01 00:12:14;;;;;;;9.10;3.20;;;;;;;10.24;77.89;101732.34;2065514;28;20030;-64
2021/10/01 00:13:14;;;;;;;4.10;3.60;;;;;;;10.28;77.61;101742.69;2065450;28;20080;-67
2021/10/01 00:14:15;;;;;;;4.67;2.70;;;;;;;10.28;77.05;101737.47;2065757;28;20034;-67
2021/10/01 00:15:15;;;;;;;4.07;3.37;;;;;;;10.26;77.76;101738.38;2066026;28;20276;-69
2021/10/01 00:16:16;;;;;;;4.13;3.15;;;;;;;10.23;77.74;101734.09;2066000;28;20084;-70
2021/10/01 00:17:17;;;;;;;5.03;3.97;;;;;;;10.24;77.29;101737.56;2066031;28;20065;-68
2021/10/01 00:18:17;;;;;;;3.43;2.80;;;;;;;10.23;78.21;101741.09;2066263;28;20026;-70
2021/10/01 00:19:18;;;;;;;5.93;2.83;;;;;;;10.21;77.92;101733.31;2066375;28;20050;-67
2021/10/01 00:20:19;;;;;;;8.27;2.97;;;;;;;10.23;77.69;101736.72;2066311;28;20018;-66
2021/10/01 00:21:19;;;;;;;7.20;3.40;;;;;;;10.23;77.93;101731.50;2066262;28;20104;-69
2021/10/01 00:22:19;;;;;;;7.17;3.30;;;;;;;10.25;77.53;101726.22;2066181;28;20094;-68
2021/10/01 00:23:20;;;;;;;5.13;3.20;;;;;;;10.24;77.34;101722.78;2066117;28;20384;-65
2021/10/01 00:24:20;;;;;;;6.30;3.57;;;;;;;10.24;77.41;101729.75;2065347;28;20062;-67
2021/10/01 00:25:20;;;;;;;7.80;3.90;;;;;;;10.22;77.29;101727.19;2065609;28;20026;-66
2021/10/01 00:26:21;;;;;;;3.53;2.83;;;;;;;10.24;77.46;101722.78;2066182;28;20029;-67
2021/10/01 00:27:21;;;;;;;5.10;3.30;;;;;;;10.25;77.05;101724.50;2066060;28;20029;-66
2021/10/01 00:28:21;;;;;;;7.00;3.07;;;;;;;10.27;77.34;101717.47;2066117;28;20040;-66
2021/10/01 00:29:22;;;;;;;6.20;3.37;;;;;;;10.26;77.59;101715.75;2065832;28;20041;-67
2021/10/01 00:30:23;;;;;;;5.27;3.47;;;;;;;10.27;77.26;101717.47;2065945;28;20076;-67
2021/10/01 00:31:23;;;;;;;7.47;3.08;;;;;;;10.24;77.56;101716.69;2065718;28;20022;-67
2021/10/01 00:32:24;;;;;;;5.63;2.57;;;;;;;10.18;78.46;101712.50;2065597;28;20018;-65
2021/10/01 00:33:24;;;;;;;4.20;1.70;;;;;;;10.16;77.84;101722.97;2065707;28;20027;-67
2021/10/01 00:34:25;;;;;;;4.30;3.25;;;;;;;10.15;77.50;101708.22;2065784;28;20024;-65
2021/10/01 00:35:25;;;;;;;6.40;2.90;;;;;;;10.19;77.69;101716.81;2065644;28;20025;-65
2021/10/01 00:36:25;;;;;;;4.37;3.20;;;;;;;10.28;76.87;101710.50;2065745;28;20026;-70
2021/10/01 00:37:25;;;;;;;5.27;3.20;;;;;;;10.28;76.65;101706.16;2065743;28;20022;-66
2021/10/01 00:38:29;;;;;;;5.63;3.07;;;;;;;10.28;77.29;101719.19;2065662;28;20483;-67
2021/10/01 00:39:29;;;;;;;4.60;3.33;;;;;;;10.25;77.29;101707.97;2065797;28;20144;-67
2021/10/01 00:40:29;;;;;;;5.70;2.87;;;;;;;10.23;77.51;101705.41;2065076;28;20535;-65
2021/10/01 00:41:30;;;;;;;3.83;2.67;;;;;;;10.24;77.32;101704.53;2065000;28;20056;-69
2021/10/01 00:42:31;;;;;;;5.72;2.30;;;;;;;10.21;77.42;101704.59;2064929;28;20033;-70
2021/10/01 00:43:31;;;;;;;8.77;3.10;;;;;;;10.20;77.72;101710.72;2064963;28;20109;-69
2021/10/01 00:44:31;;;;;;;4.07;2.00;;;;;;;10.18;77.87;101702.06;2065056;28;20492;-66
2021/10/01 00:45:32;;;;;;;6.40;3.00;;;;;;;10.16;77.93;101703.84;2065724;28;20165;-69
2021/10/01 00:46:32;;;;;;;6.18;3.08;;;;;;;10.14;78.10;101698.72;2065030;28;20472;-68
2021/10/01 00:47:33;;;;;;;6.23;3.67;;;;;;;10.17;77.64;101700.38;2064825;28;20026;-68
2021/10/01 00:48:33;;;;;;;4.13;2.80;;;;;;;10.17;77.60;101697.75;2065497;28;20034;-68
2021/10/01 00:49:33;;;;;;;5.40;1.90;;;;;;;10.17;77.89;101697.75;2065560;28;20468;-67
2021/10/01 00:50:34;;;;;;;7.30;2.50;;;;;;;10.18;77.34;101705.53;2064928;28;20022;-66
2021/10/01 00:51:35;;;;;;;5.73;3.27;;;;;;;10.19;77.93;101709.00;2065091;28;20442;-68
2021/10/01 00:52:36;;;;;;;;;;;;;;;10.16;77.29;101698.63;2065820;28;20023;-65
2021/10/01 00:53:37;;;;;;;3.05;2.85;;;;;;;10.19;77.41;101695.94;2065189;28;19948;-67
2021/10/01 00:54:37;;;;;;;6.13;2.92;;;;;;;10.18;77.34;101691.63;2065617;28;20072;-66
2021/10/01 00:55:37;;;;;;;3.87;3.43;;;;;;;10.21;77.00;101688.09;2065734;28;20030;-66
2021/10/01 00:56:38;;;;;;;6.67;3.13;;;;;;;10.24;77.35;101696.69;2065616;28;20542;-70
2021/10/01 00:57:38;;;;;;;5.10;3.60;;;;;;;10.24;77.32;101699.31;2065531;28;20054;-66
2021/10/01 00:58:39;;;;;;;4.70;3.50;;;;;;;10.23;77.36;101694.97;2065670;28;20025;-65
2021/10/01 00:59:40;;;;;;;4.35;2.33;;;;;;;10.23;76.97;101692.34;2065204;28;20050;-67
2021/10/01 01:00:49;;;;;;;3.03;2.30;;;;;;;10.26;77.38;101694.88;2065562;28;20026;-65
2021/10/01 01:01:50;;;;;;;7.50;2.00;;;;;;;10.26;77.31;101689.66;2064986;28;20037;-66
2021/10/01 01:02:50;;;;;;;8.27;3.30;;;;;;;10.26;77.24;101684.47;2065426;28;20067;-67
2021/10/01 01:03:56;;;;;;;4.63;3.03;;;;;;;10.25;76.80;101690.56;2065552;28;20018;-65
2021/10/01 01:04:56;;;;;;;6.70;2.55;;;;;;;10.28;77.14;101693.13;2065323;28;20108;-68
2021/10/01 01:06:14;;;;;;;4.03;1.75;;;;;;;10.27;76.86;101693.16;2065493;28;20026;-67
2021/10/01 01:07:26;;;;;;;6.35;1.70;;;;;;;10.26;77.11;101689.66;2065828;28;20109;-67
2021/10/01 01:08:42;;;;;;;4.57;1.80;;;;;;;10.25;77.63;101682.75;2065176;28;20081;-67
2021/10/01 01:10:00;;;;;;;2.70;1.13;;;;;;;10.23;77.41;101678.47;2065548;28;20040;-67
2021/10/01 01:11:09;;;;;;;2.78;1.52;;;;;;;10.23;77.33;101686.31;2065434;28;20084;-66
2021/10/01 01:12:09;;;;;;;3.30;2.10;;;;;;;10.26;77.13;101684.47;2064558;28;20379;-68
2021/10/01 01:13:31;;;;;;;6.17;1.77;;;;;;;10.24;77.18;101686.28;2064804;28;20030;-67
2021/10/01 01:14:43;;;;;;;5.55;1.85;;;;;;;10.23;77.21;101681.94;2065584;28;20018;-69
2021/10/01 01:15:52;;;;;;;5.18;1.52;;;;;;;10.23;77.40;101674.09;2065454;28;20104;-65
2021/10/01 01:16:56;;;;;;;2.55;1.75;;;;;;;10.21;77.32;101673.31;2064626;28;20147;-66
2021/10/01 01:18:07;;;;;;;5.97;1.23;;;;;;;10.18;77.46;101666.41;2065196;28;20503;-65
2021/10/01 01:19:13;;;;;;;3.78;2.40;;;;;;;10.14;77.47;101675.22;2065327;28;20085;-66
2021/10/01 01:20:22;;;;;;;7.82;2.38;;;;;;;10.12;77.83;101665.72;2065233;28;20033;-68
2021/10/01 01:21:50;;;;;;;7.60;0.98;;;;;;;10.08;77.45;101669.31;2065581;28;20025;-67
2021/10/01 01:23:02;;;;;;;6.72;3.70;;;;;;;10.15;77.78;101668.25;2065086;28;20420;-69
2021/10/01 01:24:14;;;;;;;5.35;1.50;;;;;;;10.11;77.15;101669.22;2064679;28;20034;-66
2021/10/01 01:25:53;;;;;;;5.70;2.75;;;;;;;10.05;77.65;101670.25;2057938;28;20495;-65
2021/10/01 01:27:15;;;;;;;4.18;2.15;;;;;;;10.03;77.96;101669.44;2061510;28;20022;-65
2021/10/01 01:28:37;;;;;;;6.30;3.08;;;;;;;10.04;78.26;101676.38;2064945;28;20052;-66
2021/10/01 01:29:44;;;;;;;5.80;1.70;;;;;;;10.02;77.80;101673.78;2064753;28;20026;-68
2021/10/01 01:30:49;;;;;;;4.75;1.80;;;;;;;10.03;78.37;101672.06;2064526;28;20100;-67
2021/10/01 01:32:13;;;;;;;5.15;1.85;;;;;;;10.01;78.28;101669.47;2064499;28;20065;-66
2021/10/01 01:33:22;;;;;;;3.85;2.20;;;;;;;9.99;78.97;101666.03;2064779;28;20041;-66
2021/10/01 01:34:39;;;;;;;5.00;2.63;;;;;;;9.98;78.61;101664.34;2065161;28;20506;-69
2021/10/01 01:35:41;;;;;;;3.20;3.00;;;;;;;10.00;78.06;101662.56;2064534;28;20022;-66
2021/10/01 01:36:43;;;;;;;4.13;2.90;;;;;;;10.01;77.94;101664.28;2064315;28;20339;-66
2021/10/01 01:37:51;;;;;;;6.57;2.90;;;;;;;9.99;78.90;101655.63;2065107;28;20069;-65
2021/10/01 01:38:53;;;;;;;4.22;2.90;;;;;;;9.98;78.69;101653.91;2065257;28;20272;-68
2021/10/01 01:39:56;;;;;;;4.82;3.08;;;;;;;9.99;78.47;101655.63;2064550;28;20066;-68
2021/10/01 01:41:00;;;;;;;5.43;2.88;;;;;;;9.97;78.33;101652.22;2064600;28;20030;-66
2021/10/01 01:42:01;;;;;;;3.78;3.30;;;;;;;9.98;78.29;101651.31;2065260;28;20022;-66
2021/10/01 01:43:07;;;;;;;5.57;2.30;;;;;;;10.01;77.94;101646.00;2065136;28;20030;-65
2021/10/01 01:44:11;;;;;;;3.67;3.30;;;;;;;10.05;77.95;101652.00;2065207;28;20081;-65
2021/10/01 01:45:13;;;;;;;4.10;2.70;;;;;;;10.09;77.66;101644.97;2065167;28;20022;-65
2021/10/01 01:46:14;;;;;;;4.53;2.00;;;;;;;10.09;77.93;101644.97;2065059;28;20029;-66
2021/10/01 01:47:14;;;;;;;6.35;2.88;;;;;;;10.07;77.61;101646.72;2065203;28;20483;-67
2021/10/01 01:48:17;;;;;;;10.07;1.70;;;;;;;10.10;77.81;101647.53;2065318;28;20471;-68
2021/10/01 01:49:20;;;;;;;3.53;3.10;;;;;;;10.12;77.83;101644.84;2065211;28;20039;-70
2021/10/01 01:50:21;;;;;;;7.53;3.45;;;;;;;10.13;77.36;101636.16;2064439;28;20410;-67
2021/10/01 01:51:23;;;;;;;3.30;1.98;;;;;;;10.14;77.14;101635.25;2064452;28;20538;-67
2021/10/01 01:52:24;;;;;;;3.70;3.22;;;;;;;10.17;77.82;101641.22;2065364;28;20105;-67
2021/10/01 01:53:25;;;;;;;7.63;3.08;;;;;;;10.17;77.42;101637.78;2065191;28;20030;-67
2021/10/01 01:54:29;;;;;;;5.65;1.42;;;;;;;10.18;77.90;101642.09;2065383;28;20022;-67
2021/10/01 01:55:30;;;;;;;9.23;2.50;;;;;;;10.19;77.34;101635.97;2064368;28;20014;-68
2021/10/01 01:56:31;;;;;;;7.57;3.83;;;;;;;10.22;77.27;101632.41;2064649;28;20030;-68
2021/10/01 01:57:31;;;;;;;3.42;3.00;;;;;;;10.20;77.70;101637.69;2065210;28;20095;-65
2021/10/01 01:58:33;;;;;;;6.80;1.50;;;;;;;10.22;77.08;101641.09;2065235;28;20471;-65
2021/10/01 01:59:36;;;;;;;3.83;2.72;;;;;;;10.22;77.00;101628.06;2064975;28;20042;-67
2021/10/01 02:00:36;;;;;;;4.47;2.78;;;;;;;10.22;77.00;101630.66;2064951;28;20488;-66
2021/10/01 02:01:38;;;;;;;6.45;2.65;;;;;;;10.23;77.32;101637.56;2065012;28;20038;-65
2021/10/01 02:02:38;;;;;;;;;;;;;;;10.24;76.89;101634.09;2066079;28;20019;-66
2021/10/01 02:03:39;;;;;;;7.28;3.72;;;;;;;10.23;77.42;101627.16;2064967;28;19916;-67
2021/10/01 02:04:40;;;;;;;5.45;3.80;;;;;;;10.24;76.96;101631.47;2065252;28;20036;-65
2021/10/01 02:05:41;;;;;;;4.57;2.65;;;;;;;10.26;76.94;101621.84;2065518;28;20022;-68
2021/10/01 02:06:44;;;;;;;3.50;3.20;;;;;;;10.27;76.71;101626.16;2065469;28;20049;-67
2021/10/01 02:07:46;;;;;;;6.45;4.22;;;;;;;10.28;77.23;101627.88;2065440;28;20070;-67
2021/10/01 02:08:47;;;;;;;6.78;3.53;;;;;;;10.27;77.36;101626.16;2065300;28;20472;-68
2021/10/01 02:09:47;;;;;;;4.95;3.20;;;;;;;10.25;77.57;101616.66;2065437;28;20109;-66
2021/10/01 02:10:48;;;;;;;5.32;3.70;;;;;;;10.26;77.19;101616.63;2065233;28;20445;-65
2021/10/01 02:11:49;;;;;;;6.00;3.38;;;;;;;10.27;77.54;101618.34;2065445;28;20030;-67
2021/10/01 02:12:55;;;;;;;5.72;3.33;;;;;;;10.28;76.90;101622.66;2065262;28;20022;-67
2021/10/01 02:13:58;;;;;;;7.25;3.65;;;;;;;10.27;77.37;101622.72;2066085;28;20037;-69
2021/10/01 02:15:00;;;;;;;3.88;3.17;;;;;;;10.24;77.75;101618.44;2067023;28;20396;-66
2021/10/01 02:16:01;;;;;;;6.35;3.20;;;;;;;10.22;77.37;101620.22;2067142;28;20061;-68
2021/10/01 02:17:03;;;;;;;7.07;3.40;;;;;;;10.24;77.13;101613.22;2067109;28;20034;-67
2021/10/01 02:18:06;;;;;;;8.05;3.30;;;;;;;10.24;76.91;101613.22;2066328;28;20034;-66
2021/10/01 02:19:08;;;;;;;2.67;2.35;;;;;;;10.24;77.12;101607.13;2066582;28;20539;-67
2021/10/01 02:20:09;;;;;;;3.92;2.97;;;;;;;10.23;77.17;101610.66;2067140;28;20113;-67
2021/10/01 02:21:12;;;;;;;3.50;3.20;;;;;;;10.22;77.75;101604.56;2067113;28;20029;-66
2021/10/01 02:22:15;;;;;;;5.47;3.00;;;;;;;10.23;76.95;101608.88;2067124;28;20503;-69
2021/10/01 02:23:16;;;;;;;3.70;3.40;;;;;;;10.22;77.03;101607.19;2067008;28;20032;-67
2021/10/01 02:24:16;;;;;;;3.75;2.75;;;;;;;10.22;77.34;101615.00;2067114;28;20395;-67
2021/10/01 02:26:41;;;;;;;5.03;3.47;;;;;;;10.20;77.54;101611.59;2066909;28;20289;-67
2021/10/01 02:27:51;;;;;;;3.90;2.88;;;;;;;10.18;77.10;101608.16;2067055;28;20081;-68
2021/10/01 02:28:59;;;;;;;5.00;3.25;;;;;;;10.15;77.39;101613.47;2066992;28;20030;-68
2021/10/01 02:30:16;;;;;;;4.97;3.25;;;;;;;10.14;77.18;101601.34;2066951;28;20069;-65
2021/10/01 02:31:22;;;;;;;3.88;3.10;;;;;;;10.15;76.97;101598.69;2066271;28;20045;-67
2021/10/01 02:32:36;;;;;;;3.53;3.23;;;;;;;10.13;77.11;101597.03;2066271;28;20024;-66
2021/10/01 02:33:42;;;;;;;4.10;2.90;;;;;;;10.11;77.07;101607.50;2066598;28;20022;-67
2021/10/01 02:34:45;;;;;;;8.70;3.92;;;;;;;10.09;76.94;101593.63;2066899;28;20137;-65
2021/10/01 02:35:46;;;;;;;5.18;3.10;;;;;;;10.07;77.50;101589.34;2066935;28;20022;-66
2021/10/01 02:36:46;;;;;;;5.43;3.15;;;;;;;10.04;77.76;101591.19;2066676;28;20037;-65
2021/10/01 02:37:47;;;;;;;8.07;3.37;;;;;;;10.02;77.73;101592.94;2066846;28;20376;-66
2021/10/01 02:38:47;;;;;;;7.13;3.38;;;;;;;10.04;77.56;101593.78;2066942;28;20367;-67
2021/10/01 02:39:51;;;;;;;6.30;3.27;;;;;;;10.04;77.23;101591.19;2066831;28;20022;-67
2021/10/01 02:40:51;;;;;;;7.45;2.88;;;;;;;10.02;77.67;101592.94;2066935;28;20084;-68
2021/10/01 02:41:52;;;;;;;6.23;2.87;;;;;;;10.00;77.50;101583.47;2067008;28;20054;-65
2021/10/01 02:42:52;;;;;;;4.27;3.00;;;;;;;9.98;77.50;101591.34;2066913;28;20053;-64
2021/10/01 02:43:52;;;;;;;4.43;3.17;;;;;;;9.98;77.59;101585.25;2066930;28;20026;-68
2021/10/01 02:44:53;;;;;;;8.80;3.30;;;;;;;9.98;78.22;101586.13;2066951;28;20378;-67
2021/10/01 02:45:53;;;;;;;6.13;3.35;;;;;;;9.96;77.70;101577.47;2067019;28;20030;-66
2021/10/01 02:46:53;;;;;;;5.13;2.33;;;;;;;9.94;77.97;101581.88;2066346;28;20452;-66
2021/10/01 02:47:54;;;;;;;6.00;2.53;;;;;;;9.91;78.31;101590.66;2066397;28;20030;-65
2021/10/01 02:48:54;;;;;;;7.03;3.43;;;;;;;9.92;78.01;101587.16;2066921;28;20479;-69
2021/10/01 02:49:56;;;;;;;7.43;3.37;;;;;;;9.92;78.08;101586.28;2066161;28;20066;-67
2021/10/01 02:51:00;;;;;;;4.32;3.35;;;;;;;9.90;77.72;101582.88;2066174;28;20041;-67
2021/10/01 02:52:08;;;;;;;8.65;3.75;;;;;;;9.97;77.96;101579.19;2058565;28;20029;-65
2021/10/01 02:53:22;;;;;;;5.70;3.78;;;;;;;9.98;77.58;101575.69;2066370;28;20022;-68
2021/10/01 02:54:36;;;;;;;5.80;3.72;;;;;;;9.99;77.39;101572.19;2066637;28;20060;-66
2021/10/01 02:55:45;;;;;;;8.00;3.25;;;;;;;9.96;77.74;101576.63;2066767;28;20084;-66
2021/10/01 02:56:51;;;;;;;5.10;3.70;;;;;;;9.95;78.45;101570.56;2066795;28;20030;-65
2021/10/01 02:58:17;;;;;;;4.57;2.38;;;;;;;9.92;77.67;101568.03;2067046;28;20542;-65
2021/10/01 02:59:21;;;;;;;4.43;2.90;;;;;;;9.93;78.01;101567.16;2066654;28;20078;-69
2021/10/01 03:00:22;;;;;;;9.93;3.45;;;;;;;9.95;78.02;101573.16;2066715;28;20046;-66
2021/10/01 03:01:25;;;;;;;5.55;3.65;;;;;;;9.92;78.05;101566.28;2066038;28;20022;-65
2021/10/01 03:02:25;;;;;;;12.93;4.63;;;;;;;9.95;77.72;101567.09;2058405;28;20038;-66
2021/10/01 03:03:30;;;;;;;4.40;3.20;;;;;;;9.95;77.73;101564.50;2058020;28;20026;-65
2021/10/01 03:04:33;;;;;;;6.68;3.40;;;;;;;9.99;77.65;101566.97;2065928;28;20046;-68
2021/10/01 03:05:34;;;;;;;4.85;3.13;;;;;;;10.03;77.84;101562.53;2066018;28;20096;-69
2021/10/01 03:06:39;;;;;;;5.40;3.60;;;;;;;10.04;77.53;101556.41;2066048;28;20049;-69
2021/10/01 03:07:41;;;;;;;6.03;2.90;;;;;;;10.06;77.38;101562.41;2065683;28;20053;-69
2021/10/01 03:08:42;;;;;;;3.10;2.90;;;;;;;10.08;77.44;101559.75;2057795;28;20015;-67
2021/10/01 03:09:47;;;;;;;4.55;2.92;;;;;;;10.11;76.68;101562.28;2065711;28;20072;-66
2021/10/01 03:10:50;;;;;;;4.50;1.92;;;;;;;10.14;76.80;101554.38;2065537;28;20483;-66
2021/10/01 03:11:51;;;;;;;2.67;1.10;;;;;;;10.16;77.05;101563.00;2066017;28;20102;-64
2021/10/01 03:12:53;;;;;;;5.28;1.77;;;;;;;10.18;76.25;101556.00;2065445;28;20022;-64
2021/10/01 03:13:55;;;;;;;2.38;1.67;;;;;;;10.18;76.98;101553.41;2065577;28;20420;-69
2021/10/01 03:14:55;;;;;;;4.70;1.77;;;;;;;10.18;77.02;101556.88;2066406;28;20033;-65
2021/10/01 03:15:59;;;;;;;5.05;3.60;;;;;;;10.20;76.85;101553.34;2066272;28;20026;-65
2021/10/01 03:17:00;;;;;;;9.15;3.33;;;;;;;10.23;76.52;101555.88;2066346;28;20025;-66
2021/10/01 03:18:00;;;;;;;4.40;2.22;;;;;;;10.24;76.26;101555.84;2066304;28;20037;-70
2021/10/01 03:19:02;;;;;;;10.52;3.17;;;;;;;10.27;75.82;101540.06;2066363;28;20026;-67
2021/10/01 03:20:02;;;;;;;;;;;;;;;10.29;76.20;101546.09;2067213;28;20356;-67
2021/10/01 03:21:04;;;;;;;3.53;3.15;;;;;;;10.29;76.29;101547.84;2066355;28;19920;-67
2021/10/01 03:22:04;;;;;;;3.58;3.05;;;;;;;10.28;76.21;101536.59;2066322;28;20399;-65
2021/10/01 03:23:06;;;;;;;4.30;3.17;;;;;;;10.30;75.59;101542.59;2066245;28;20073;-66
2021/10/01 03:24:08;;;;;;;9.57;3.90;;;;;;;10.31;75.92;101538.25;2065749;28;20387;-68
2021/10/01 03:25:11;;;;;;;5.35;3.58;;;;;;;10.31;76.33;101541.69;2065583;28;20037;-68
2021/10/01 03:26:12;;;;;;;6.38;3.47;;;;;;;10.33;75.53;101539.03;2065772;28;20057;-68
2021/10/01 03:27:14;;;;;;;7.43;3.47;;;;;;;10.37;75.54;101539.81;2066344;28;20027;-67
2021/10/01 03:28:16;;;;;;;5.47;3.85;;;;;;;10.37;75.51;101530.22;2066357;28;20105;-68
2021/10/01 03:29:18;;;;;;;4.93;3.55;;;;;;;10.37;75.61;101530.22;2065628;28;20026;-66
2021/10/01 03:30:19;;;;;;;4.40;2.72;;;;;;;10.36;75.82;101522.41;2065652;28;20030;-65
2021/10/01 03:31:19;;;;;;;4.63;3.53;;;;;;;10.36;75.59;101522.41;2066400;28;20026;-65
2021/10/01 03:32:20;;;;;;;7.63;2.63;;;;;;;10.35;75.50;101521.59;2066058;28;20440;-68
2021/10/01 03:33:27;;;;;;;3.67;3.40;;;;;;;10.38;75.47;101526.72;2066382;28;20123;-67
2021/10/01 03:34:27;;;;;;;6.55;2.95;;;;;;;10.39;76.18;101522.34;2066530;28;20033;-69
2021/10/01 03:35:29;;;;;;;5.73;3.50;;;;;;;10.41;75.14;101520.53;2065838;28;20075;-68
2021/10/01 03:36:30;;;;;;;3.65;3.10;;;;;;;10.41;75.14;101515.34;2065735;28;20030;-65
2021/10/01 03:37:31;;;;;;;5.77;3.57;;;;;;;10.44;75.65;101520.47;2065897;28;20026;-66
2021/10/01 03:38:31;;;;;;;6.40;3.38;;;;;;;10.44;76.00;101525.69;2066379;28;20026;-67
2021/10/01 03:39:31;;;;;;;7.27;3.70;;;;;;;10.41;75.78;101515.34;2066512;28;20022;-69
2021/10/01 03:40:33;;;;;;;7.40;3.97;;;;;;;10.42;74.86;101512.69;2066407;28;20467;-68
2021/10/01 03:41:34;;;;;;;3.60;3.30;;;;;;;10.46;74.88;101518.66;2066336;28;20022;-68
2021/10/01 03:42:35;;;;;;;;;;;;;;;10.46;74.83;101518.66;2067193;28;20026;-66
2021/10/01 03:43:35;;;;;;;3.50;2.83;;;;;;;10.49;74.82;101520.31;2066480;28;19949;-68
2021/10/01 03:44:35;;;;;;;4.37;2.93;;;;;;;10.50;75.04;101522.91;2066224;28;20020;-68
2021/10/01 03:45:36;;;;;;;3.70;3.40;;;;;;;10.48;75.34;101514.28;2065904;28;20072;-67
2021/10/01 03:46:36;;;;;;;8.63;3.00;;;;;;;10.49;75.00;101512.50;2065997;28;20117;-69
2021/10/01 03:47:36;;;;;;;8.83;4.37;;;;;;;10.49;74.81;101505.53;2065837;28;20493;-66
2021/10/01 03:48:37;;;;;;;6.13;3.47;;;;;;;10.51;74.31;101502.88;2057836;28;20035;-67
2021/10/01 03:49:37;;;;;;;5.97;3.10;;;;;;;10.51;73.90;101506.31;2065844;28;20054;-68
2021/10/01 03:50:38;;;;;;;3.70;3.40;;;;;;;10.53;74.18;101498.44;2066116;28;20530;-65
2021/10/01 03:51:38;;;;;;;5.72;3.50;;;;;;;10.52;74.40;101497.63;2065707;28;20085;-68
2021/10/01 03:52:38;;;;;;;5.23;3.67;;;;;;;10.49;74.88;101508.16;2065773;28;20022;-67
2021/10/01 03:53:40;;;;;;;5.50;3.53;;;;;;;10.48;74.83;101506.44;2065673;28;20022;-66
2021/10/01 03:54:43;;;;;;;6.53;2.92;;;;;;;10.45;73.97;101501.31;2065710;28;20018;-66
2021/10/01 03:55:43;;;;;;;3.97;2.28;;;;;;;10.45;74.79;101496.09;2058031;28;20018;-65
2021/10/01 03:56:44;;;;;;;6.23;3.43;;;;;;;10.40;74.42;101497.97;2065840;28;20030;-68
2021/10/01 03:57:44;;;;;;;4.78;4.30;;;;;;;10.39;74.93;101493.63;2065787;28;20527;-67
2021/10/01 03:58:48;;;;;;;5.97;3.37;;;;;;;10.38;74.25;101486.72;2065712;28;20026;-68
2021/10/01 03:59:48;;;;;;;8.48;3.22;;;;;;;10.36;74.57;101481.53;2066374;28;20076;-67
2021/10/01 04:00:49;;;;;;;5.70;3.77;;;;;;;10.33;74.27;101483.41;2066225;28;20029;-67
2021/10/01 04:01:49;;;;;;;5.00;3.60;;;;;;;10.30;74.64;101479.97;2066342;28;20077;-65
2021/10/01 04:02:49;;;;;;;6.50;3.53;;;;;;;10.27;74.87;101479.22;2066110;28;20277;-68
2021/10/01 04:03:50;;;;;;;4.60;2.57;;;;;;;10.25;75.33;101478.41;2066466;28;20034;-69
2021/10/01 04:04:50;;;;;;;4.33;2.97;;;;;;;10.24;74.80;101477.56;2066400;28;20038;-64
2021/10/01 04:05:50;;;;;;;7.10;3.67;;;;;;;10.22;75.12;101474.16;2066293;28;20030;-67
2021/10/01 04:06:51;;;;;;;5.40;3.30;;;;;;;10.22;74.70;101476.75;2066313;28;20038;-67
2021/10/01 04:07:51;;;;;;;4.30;3.30;;;;;;;10.24;74.79;101463.66;2066364;28;20030;-67
2021/10/01 04:08:52;;;;;;;3.92;2.67;;;;;;;10.24;74.60;101463.66;2066299;28;20080;-67
2021/10/01 04:09:52;;;;;;;4.43;3.30;;;;;;;10.23;74.93;101470.63;2065628;28;20022;-68
2021/10/01 04:10:52;;;;;;;5.03;2.97;;;;;;;10.19;74.49;101463.81;2057552;28;20019;-66
2021/10/01 04:11:54;;;;;;;4.67;2.30;;;;;;;10.18;74.55;101457.75;2065843;28;20029;-65
2021/10/01 04:12:54;;;;;;;3.40;2.22;;;;;;;10.21;74.55;101461.16;2066333;28;20049;-66
2021/10/01 04:13:54;;;;;;;6.03;3.00;;;;;;;10.23;74.81;101448.94;2065655;28;20066;-67
2021/10/01 04:14:55;;;;;;;6.33;3.30;;;;;;;10.23;74.38;101452.38;2065615;28;20026;-68
2021/10/01 04:15:55;;;;;;;4.73;2.10;;;;;;;10.25;74.40;101458.41;2066385;28;20030;-67
2021/10/01 04:16:55;;;;;;;5.33;3.03;;;;;;;10.28;74.27;101447.03;2066292;28;20038;-68
2021/10/01 04:17:56;;;;;;;5.30;3.13;;;;;;;10.28;74.09;101458.31;2066281;28;20034;-68
2021/10/01 04:18:56;;;;;;;6.70;3.17;;;;;;;10.29;73.78;101454.81;2066328;28;20041;-68
2021/10/01 04:19:58;;;;;;;8.33;3.47;;;;;;;10.30;73.90;101450.44;2065490;28;20084;-68
2021/10/01 04:20:58;;;;;;;3.35;2.72;;;;;;;10.31;73.68;101452.16;2065736;28;20399;-67
2021/10/01 04:21:58;;;;;;;3.17;2.87;;;;;;;10.36;73.65;101446.75;2066055;28;20049;-67
2021/10/01 04:22:58;;;;;;;5.33;4.03;;;;;;;10.37;73.81;101443.28;2066168;28;20014;-68
2021/10/01 04:23:59;;;;;;;4.23;3.00;;;;;;;10.36;73.97;101449.38;2065518;28;20028;-67
2021/10/01 04:24:59;;;;;;;14.03;3.33;;;;;;;10.34;73.28;101432.94;2065598;28;20129;-66
2021/10/01 04:26:00;;;;;;;3.13;2.20;;;;;;;10.35;73.23;101439.84;2065549;28;20050;-65
2021/10/01 04:27:00;;;;;;;12.50;4.03;;;;;;;10.35;73.81;101437.22;2065405;28;20129;-66
2021/10/01 04:28:03;;;;;;;8.23;2.85;;;;;;;10.37;73.54;101440.66;2065112;28;20071;-66
2021/10/01 04:29:04;;;;;;;5.25;3.08;;;;;;;10.38;72.95;101442.38;2065373;28;20105;-68
2021/10/01 04:30:05;;;;;;;3.27;3.07;;;;;;;10.41;73.29;101447.50;2066144;28;20037;-66
2021/10/01 04:31:05;;;;;;;5.65;2.85;;;;;;;10.40;72.77;101444.00;2066270;28;20065;-66
2021/10/01 04:32:07;;;;;;;5.90;3.80;;;;;;;10.42;72.76;101443.97;2066190;28;20026;-69
2021/10/01 04:33:24;;;;;;;3.53;2.83;;;;;;;10.41;73.33;101437.88;2066111;28;20562;-66
2021/10/01 04:34:24;;;;;;;6.55;3.20;;;;;;;10.45;73.04;101438.69;2066099;28;20145;-64
2021/10/01 04:35:24;;;;;;;4.80;3.10;;;;;;;10.46;73.39;101439.53;2066040;28;20108;-65
2021/10/01 04:36:26;;;;;;;3.03;2.77;;;;;;;10.46;73.14;101447.34;2064748;28;20021;-65
2021/10/01 04:37:27;;;;;;;5.90;3.38;;;;;;;10.48;72.41;101438.59;2065286;28;20363;-65
2021/10/01 04:38:29;;;;;;;4.93;2.97;;;;;;;10.52;72.42;101448.03;2065383;28;20045;-67
2021/10/01 04:39:29;;;;;;;5.82;3.20;;;;;;;10.53;71.96;101441.91;2066078;28;20033;-66
2021/10/01 04:40:29;;;;;;;4.10;2.90;;;;;;;10.56;72.24;101441.81;2066100;28;20022;-67
2021/10/01 04:41:30;;;;;;;7.40;3.60;;;;;;;10.55;72.33;101445.28;2066115;28;20072;-67
2021/10/01 04:42:30;;;;;;;7.18;3.25;;;;;;;10.54;72.27;101443.59;2066108;28;20022;-65
2021/10/01 04:43:30;;;;;;;4.07;3.47;;;;;;;10.58;72.26;101433.06;2066189;28;20014;-65
2021/10/01 04:44:31;;;;;;;5.70;3.17;;;;;;;10.60;72.46;101446.94;2066239;28;20073;-65
2021/10/01 04:45:31;;;;;;;6.43;3.67;;;;;;;10.61;71.58;101441.63;2066196;28;20025;-64
2021/10/01 04:46:31;;;;;;;8.23;3.87;;;;;;;10.61;72.63;101441.63;2066109;28;20030;-66
2021/10/01 04:47:31;;;;;;;4.73;3.47;;;;;;;10.59;72.00;101435.63;2066157;28;20029;-67
2021/10/01 04:48:32;;;;;;;7.00;2.90;;;;;;;10.58;72.53;101438.28;2065664;28;20379;-68
2021/10/01 04:49:32;;;;;;;5.43;3.33;;;;;;;10.59;73.08;101429.53;2065641;28;20042;-68
2021/10/01 04:50:33;;;;;;;6.33;3.27;;;;;;;10.56;72.70;101436.59;2065956;28;20033;-69
2021/10/01 04:51:34;;;;;;;;;;;;;;;10.58;71.69;101438.28;2066772;28;20026;-64
2021/10/01 04:52:34;;;;;;;4.72;3.08;;;;;;;10.56;72.29;101436.59;2066094;28;19914;-67
2021/10/01 04:53:34;;;;;;;6.50;3.23;;;;;;;10.55;72.96;101434.84;2065873;28;20053;-65